createdAt,value
2023-05-02T00:00:22.434Z,31.45
2023-05-02T00:01:22.459Z,31.50
2023-05-02T00:02:22.529Z,31.52
2023-05-02T00:03:22.570Z,31.53
2023-05-02T00:04:22.541Z,31.53
2023-05-02T00:05:22.493Z,31.52
2023-05-02T00:06:22.575Z,31.52
2023-05-02T00:07:22.529Z,31.50
2023-05-02T00:08:22.540Z,31.49
2023-05-02T00:09:22.601Z,31.48
2023-05-02T00:10:22.575Z,31.44
2023-05-02T00:11:22.582Z,31.44
2023-05-02T00:12:22.594Z,31.45
2023-05-02T00:13:22.654Z,31.41
2023-05-02T00:14:22.655Z,31.44
2023-05-02T00:15:22.654Z,31.40
2023-05-02T00:16:22.719Z,31.33
2023-05-02T00:17:22.807Z,31.37
2023-05-02T00:18:22.710Z,31.36
2023-05-02T00:19:22.722Z,31.32
2023-05-02T00:20:22.740Z,31.34
2023-05-02T00:21:22.763Z,31.27
2023-05-02T00:22:22.778Z,31.30
2023-05-02T00:23:22.789Z,31.25
2023-05-02T00:24:22.792Z,31.25
2023-05-02T00:25:22.813Z,31.20
2023-05-02T00:26:22.820Z,31.21
2023-05-02T00:27:22.833Z,31.21
2023-05-02T00:28:22.869Z,31.18
2023-05-02T00:29:22.896Z,31.18
2023-05-02T00:30:22.880Z,31.19
2023-05-02T00:31:22.926Z,31.16
2023-05-02T00:32:22.928Z,31.21
2023-05-02T00:33:22.905Z,31.16
2023-05-02T00:34:22.906Z,31.18
2023-05-02T00:35:22.917Z,31.15
2023-05-02T00:36:22.929Z,31.14
2023-05-02T00:37:22.929Z,31.12
2023-05-02T00:38:22.939Z,31.14
2023-05-02T00:39:22.942Z,31.14
2023-05-02T00:40:22.949Z,31.11
2023-05-02T00:41:22.965Z,31.08
2023-05-02T00:42:22.969Z,31.10
2023-05-02T00:43:22.978Z,31.14
2023-05-02T00:44:23.001Z,31.08
2023-05-02T00:45:23.029Z,31.07
2023-05-02T00:46:23.058Z,31.07
2023-05-02T00:47:23.024Z,31.07
2023-05-02T00:48:23.049Z,31.04
2023-05-02T00:49:23.069Z,31.07
2023-05-02T00:50:23.060Z,31.10
2023-05-02T00:51:23.072Z,31.11
2023-05-02T00:52:23.087Z,31.01
2023-05-02T00:53:23.129Z,31.04
2023-05-02T00:54:23.184Z,31.04
2023-05-02T00:55:23.226Z,31.06
2023-05-02T00:56:23.261Z,31.05
2023-05-02T00:57:23.282Z,31.06
2023-05-02T00:58:23.297Z,31.07
2023-05-02T00:59:23.327Z,31.04
2023-05-02T01:00:23.337Z,31.07
2023-05-02T01:01:23.525Z,31.06
2023-05-02T01:02:23.577Z,31.04
2023-05-02T01:03:23.496Z,31.07
2023-05-02T01:04:23.448Z,31.03
2023-05-02T01:05:23.441Z,31.06
2023-05-02T01:06:23.504Z,31.05
2023-05-02T01:07:23.492Z,31.07
2023-05-02T01:08:23.510Z,31.06
2023-05-02T01:09:23.546Z,31.08
2023-05-02T01:10:23.547Z,31.03
2023-05-02T01:11:23.564Z,31.03
2023-05-02T01:12:23.581Z,31.03
2023-05-02T01:13:23.598Z,31.03
2023-05-02T01:14:23.623Z,31.03
2023-05-02T01:15:23.641Z,31.03
2023-05-02T01:16:23.715Z,31.06
2023-05-02T01:17:23.737Z,31.04
2023-05-02T01:18:24.081Z,31.02
2023-05-02T01:19:24.130Z,31.03
2023-05-02T01:20:24.156Z,31.07
2023-05-02T01:21:24.126Z,31.07
2023-05-02T01:22:24.130Z,31.04
2023-05-02T01:23:24.127Z,31.04
2023-05-02T01:24:24.120Z,31.07
2023-05-02T01:25:24.122Z,31.06
2023-05-02T01:26:24.123Z,31.06
2023-05-02T01:27:24.115Z,31.07
2023-05-02T01:28:24.112Z,31.05
2023-05-02T01:29:24.121Z,31.04
2023-05-02T01:30:24.118Z,31.00
2023-05-02T01:31:24.137Z,31.04
2023-05-02T01:32:24.112Z,31.04
2023-05-02T01:33:24.249Z,31.06
2023-05-02T01:34:24.141Z,30.99
2023-05-02T01:35:24.168Z,31.04
2023-05-02T01:36:24.175Z,31.07
2023-05-02T01:37:24.195Z,31.06
2023-05-02T01:38:24.225Z,31.03
2023-05-02T01:39:24.247Z,30.99
2023-05-02T01:40:24.265Z,31.05
2023-05-02T01:41:24.289Z,31.06
2023-05-02T01:42:24.307Z,31.06
2023-05-02T01:43:24.320Z,31.05
2023-05-02T01:44:24.369Z,31.02
2023-05-02T01:45:24.377Z,31.04
2023-05-02T01:46:24.416Z,31.01
2023-05-02T01:47:24.437Z,31.04
2023-05-02T01:48:24.440Z,31.07
2023-05-02T01:49:24.465Z,31.08
2023-05-02T01:50:24.465Z,31.04
2023-05-02T01:51:24.493Z,31.05
2023-05-02T01:52:24.512Z,31.05
2023-05-02T01:53:24.531Z,30.99
2023-05-02T01:54:24.554Z,31.00
2023-05-02T01:55:24.589Z,31.07
2023-05-02T01:56:24.596Z,31.04
2023-05-02T01:57:24.968Z,31.05
2023-05-02T01:58:25.009Z,31.05
2023-05-02T01:59:25.016Z,31.07
2023-05-02T02:00:25.009Z,31.05
2023-05-02T02:01:25.053Z,31.01
2023-05-02T02:02:25.018Z,31.07
2023-05-02T02:03:25.079Z,31.05
2023-05-02T02:04:25.041Z,31.05
2023-05-02T02:05:25.048Z,31.08
2023-05-02T02:06:25.040Z,31.04
2023-05-02T02:07:25.024Z,31.05
2023-05-02T02:08:25.010Z,31.07
2023-05-02T02:09:25.007Z,31.08
2023-05-02T02:10:25.011Z,31.08
2023-05-02T02:11:25.026Z,31.05
2023-05-02T02:12:25.016Z,31.07
2023-05-02T02:13:25.014Z,31.04
2023-05-02T02:14:25.058Z,31.07
2023-05-02T02:15:25.023Z,31.05
2023-05-02T02:16:25.091Z,31.02
2023-05-02T02:17:25.130Z,31.02
2023-05-02T02:18:25.085Z,31.07
2023-05-02T02:19:25.121Z,31.07
2023-05-02T02:20:25.143Z,31.04
2023-05-02T02:21:25.216Z,31.07
2023-05-02T02:22:25.200Z,31.04
2023-05-02T02:23:25.217Z,31.04
2023-05-02T02:24:25.241Z,31.04
2023-05-02T02:25:25.264Z,31.07
2023-05-02T02:26:25.288Z,31.02
2023-05-02T02:27:25.315Z,31.04
2023-05-02T02:28:25.339Z,31.04
2023-05-02T02:29:25.376Z,31.07
2023-05-02T02:30:25.394Z,31.06
2023-05-02T02:31:25.440Z,31.06
2023-05-02T02:32:25.467Z,31.05
2023-05-02T02:33:25.446Z,31.04
2023-05-02T02:34:25.468Z,31.06
2023-05-02T02:35:25.499Z,31.08
2023-05-02T02:36:25.533Z,31.08
2023-05-02T02:37:25.571Z,31.05
2023-05-02T02:38:25.557Z,31.06
2023-05-02T02:39:25.570Z,31.05
2023-05-02T02:40:25.603Z,31.09
2023-05-02T02:41:25.624Z,31.06
2023-05-02T02:42:25.648Z,31.03
2023-05-02T02:43:25.674Z,31.08
2023-05-02T02:44:25.700Z,31.05
2023-05-02T02:45:25.714Z,31.07
2023-05-02T02:46:25.812Z,31.12
2023-05-02T02:47:25.761Z,31.08
2023-05-02T02:48:25.776Z,31.07
2023-05-02T02:49:25.806Z,31.04
2023-05-02T02:50:25.831Z,31.05
2023-05-02T02:51:25.853Z,31.08
2023-05-02T02:52:25.881Z,31.05
2023-05-02T02:53:25.930Z,31.07
2023-05-02T02:54:27.427Z,31.03
2023-05-02T02:55:26.146Z,31.07
2023-05-02T02:56:26.174Z,31.05
2023-05-02T02:57:26.192Z,31.05
2023-05-02T02:58:26.284Z,31.04
2023-05-02T02:59:26.238Z,31.01
2023-05-02T03:00:26.254Z,31.08
2023-05-02T03:01:26.309Z,31.11
2023-05-02T03:02:26.301Z,31.04
2023-05-02T03:03:26.462Z,31.05
2023-05-02T03:04:26.358Z,31.11
2023-05-02T03:05:26.404Z,31.09
2023-05-02T03:06:26.496Z,31.08
2023-05-02T03:07:26.424Z,31.04
2023-05-02T03:08:26.459Z,31.09
2023-05-02T03:09:26.487Z,31.07
2023-05-02T03:10:26.483Z,31.08
2023-05-02T03:11:28.332Z,31.09
2023-05-02T03:12:26.503Z,31.05
2023-05-02T03:13:26.518Z,31.09
2023-05-02T03:14:26.521Z,31.06
2023-05-02T03:15:26.529Z,31.08
2023-05-02T03:16:26.543Z,31.11
2023-05-02T03:17:26.555Z,31.08
2023-05-02T03:18:26.546Z,31.01
2023-05-02T03:19:26.558Z,31.02
2023-05-02T03:20:26.561Z,31.11
2023-05-02T03:21:26.571Z,31.16
2023-05-02T03:22:27.557Z,31.06
2023-05-02T03:23:26.602Z,31.07
2023-05-02T03:24:26.604Z,31.09
2023-05-02T03:25:26.748Z,31.04
2023-05-02T03:26:26.630Z,31.08
2023-05-02T03:27:26.649Z,31.08
2023-05-02T03:28:26.635Z,31.12
2023-05-02T03:29:26.652Z,31.11
2023-05-02T03:30:26.650Z,31.11
2023-05-02T03:31:27.006Z,31.06
2023-05-02T03:32:26.745Z,31.09
2023-05-02T03:33:26.690Z,31.03
2023-05-02T03:34:26.689Z,31.06
2023-05-02T03:35:26.691Z,31.11
2023-05-02T03:36:26.705Z,31.11
2023-05-02T03:37:26.718Z,31.15
2023-05-02T03:38:26.709Z,31.12
2023-05-02T03:39:26.725Z,31.06
2023-05-02T03:40:26.719Z,31.11
2023-05-02T03:41:26.764Z,31.08
2023-05-02T03:42:26.742Z,31.12
2023-05-02T03:43:26.739Z,31.08
2023-05-02T03:44:26.749Z,31.08
2023-05-02T03:45:26.767Z,31.11
2023-05-02T03:46:26.805Z,31.06
2023-05-02T03:47:26.814Z,31.08
2023-05-02T03:48:26.791Z,31.11
2023-05-02T03:49:26.794Z,31.07
2023-05-02T03:50:26.809Z,31.08
2023-05-02T03:51:26.817Z,31.11
2023-05-02T03:52:26.846Z,31.12
2023-05-02T03:53:26.868Z,31.12
2023-05-02T03:54:26.902Z,31.09
2023-05-02T03:55:26.933Z,31.10
2023-05-02T03:56:26.965Z,31.11
2023-05-02T03:57:27.008Z,31.13
2023-05-02T03:58:27.002Z,31.09
2023-05-02T03:59:27.023Z,31.12
2023-05-02T04:00:27.071Z,31.11
2023-05-02T04:01:27.081Z,31.08
2023-05-02T04:02:27.193Z,31.09
2023-05-02T04:03:29.307Z,31.07
2023-05-02T04:04:27.169Z,31.07
2023-05-02T04:05:27.166Z,31.13
2023-05-02T04:06:27.176Z,31.07
2023-05-02T04:07:27.178Z,31.09
2023-05-02T04:08:27.187Z,31.09
2023-05-02T04:09:27.195Z,31.13
2023-05-02T04:10:27.210Z,31.13
2023-05-02T04:11:27.222Z,31.17
2023-05-02T04:12:27.226Z,31.11
2023-05-02T04:13:27.264Z,31.12
2023-05-02T04:14:27.246Z,31.11
2023-05-02T04:15:27.257Z,31.16
2023-05-02T04:16:27.342Z,31.12
2023-05-02T04:17:27.340Z,31.14
2023-05-02T04:18:27.291Z,31.15
2023-05-02T04:19:27.288Z,31.16
2023-05-02T04:20:27.331Z,31.17
2023-05-02T04:21:27.325Z,31.11
2023-05-02T04:22:27.326Z,31.10
2023-05-02T04:23:27.346Z,31.14
2023-05-02T04:24:27.348Z,31.10
2023-05-02T04:25:27.367Z,31.18
2023-05-02T04:26:27.403Z,31.11
2023-05-02T04:27:27.387Z,31.14
2023-05-02T04:28:27.403Z,31.16
2023-05-02T04:29:27.448Z,31.16
2023-05-02T04:30:27.432Z,31.17
2023-05-02T04:31:27.506Z,31.16
2023-05-02T04:32:27.476Z,31.13
2023-05-02T04:33:27.478Z,31.18
2023-05-02T04:34:27.498Z,31.10
2023-05-02T04:35:27.519Z,31.14
2023-05-02T04:36:27.531Z,31.14
2023-05-02T04:37:27.547Z,31.17
2023-05-02T04:38:27.562Z,31.10
2023-05-02T04:39:27.571Z,31.17
2023-05-02T04:40:27.588Z,31.13
2023-05-02T04:41:27.601Z,31.16
2023-05-02T04:42:27.627Z,31.17
2023-05-02T04:43:27.623Z,31.14
2023-05-02T04:44:27.646Z,31.18
2023-05-02T04:45:27.699Z,31.16
2023-05-02T04:46:27.722Z,31.14
2023-05-02T04:47:27.723Z,31.11
2023-05-02T04:48:27.713Z,31.21
2023-05-02T04:49:27.714Z,31.13
2023-05-02T04:50:27.731Z,31.11
2023-05-02T04:51:28.590Z,31.11
2023-05-02T04:52:27.760Z,31.14
2023-05-02T04:53:27.769Z,31.16
2023-05-02T04:54:27.788Z,31.14
2023-05-02T04:55:27.804Z,31.13
2023-05-02T04:56:27.821Z,31.18
2023-05-02T04:57:27.829Z,31.13
2023-05-02T04:58:27.847Z,31.13
2023-05-02T04:59:27.851Z,31.20
2023-05-02T05:00:27.859Z,31.15
2023-05-02T05:01:28.036Z,31.14
2023-05-02T05:02:28.014Z,31.20
2023-05-02T05:03:28.016Z,31.17
2023-05-02T05:04:27.937Z,31.17
2023-05-02T05:05:27.980Z,31.17
2023-05-02T05:06:27.941Z,31.14
2023-05-02T05:07:28.103Z,31.16
2023-05-02T05:08:27.949Z,31.14
2023-05-02T05:09:27.948Z,31.16
2023-05-02T05:10:27.961Z,31.15
2023-05-02T05:11:27.960Z,31.15
2023-05-02T05:12:27.973Z,31.11
2023-05-02T05:13:27.982Z,31.17
2023-05-02T05:14:28.104Z,31.11
2023-05-02T05:15:28.005Z,31.13
2023-05-02T05:16:28.029Z,31.14
2023-05-02T05:17:28.102Z,31.13
2023-05-02T05:18:28.050Z,31.14
2023-05-02T05:19:28.075Z,31.16
2023-05-02T05:20:28.123Z,31.11
2023-05-02T05:21:28.080Z,31.13
2023-05-02T05:22:28.084Z,31.05
2023-05-02T05:23:28.120Z,31.10
2023-05-02T05:24:28.135Z,31.28
2023-05-02T05:25:28.637Z,31.42
2023-05-02T05:26:28.126Z,31.34
2023-05-02T05:27:28.606Z,31.40
2023-05-02T05:28:28.205Z,31.45
2023-05-02T05:29:28.232Z,31.43
2023-05-02T05:30:28.274Z,31.47
2023-05-02T05:31:28.374Z,31.52
2023-05-02T05:32:28.692Z,31.47
2023-05-02T05:33:28.537Z,31.51
2023-05-02T05:34:28.354Z,31.54
2023-05-02T05:35:28.610Z,31.55
2023-05-02T05:36:28.427Z,31.57
2023-05-02T05:37:28.625Z,31.53
2023-05-02T05:38:29.108Z,31.53
2023-05-02T05:39:28.480Z,31.57
2023-05-02T05:40:28.886Z,31.60
2023-05-02T05:41:28.546Z,31.63
2023-05-02T05:42:28.629Z,31.62
2023-05-02T05:43:28.616Z,31.61
2023-05-02T05:44:28.648Z,31.57
2023-05-02T05:45:28.624Z,31.63
2023-05-02T05:46:29.697Z,31.88
2023-05-02T05:47:29.253Z,31.78
2023-05-02T05:48:28.742Z,31.88
2023-05-02T05:49:30.138Z,31.82
2023-05-02T05:50:28.772Z,31.84
2023-05-02T05:51:29.353Z,32.05
2023-05-02T05:52:28.816Z,32.17
2023-05-02T05:53:28.834Z,32.28
2023-05-02T05:54:29.152Z,32.45
2023-05-02T05:55:28.903Z,33.10
2023-05-02T05:56:28.951Z,33.00
2023-05-02T05:57:29.372Z,33.49
2023-05-02T05:58:28.914Z,34.18
2023-05-02T05:59:29.010Z,33.85
2023-05-02T06:00:28.973Z,34.28
2023-05-02T06:01:28.982Z,33.74
2023-05-02T06:02:29.301Z,34.09
2023-05-02T06:03:29.235Z,34.33
2023-05-02T06:04:29.178Z,34.54
2023-05-02T06:05:29.250Z,34.87
2023-05-02T06:06:36.800Z,34.62
2023-05-02T06:07:29.280Z,34.42
2023-05-02T06:08:29.266Z,34.85
2023-05-02T06:09:29.277Z,34.76
2023-05-02T06:10:29.319Z,34.88
2023-05-02T06:11:29.314Z,35.00
2023-05-02T06:12:29.687Z,35.10
2023-05-02T06:13:29.297Z,35.02
2023-05-02T06:14:29.311Z,35.15
2023-05-02T06:15:30.302Z,35.32
2023-05-02T06:16:29.369Z,35.23
2023-05-02T06:17:29.698Z,35.17
2023-05-02T06:18:29.284Z,35.83
2023-05-02T06:19:29.283Z,35.46
2023-05-02T06:20:29.635Z,35.28
2023-05-02T06:21:29.313Z,35.31
2023-05-02T06:22:29.281Z,35.40
2023-05-02T06:23:29.637Z,35.43
2023-05-02T06:24:29.340Z,35.48
2023-05-02T06:25:29.417Z,35.43
2023-05-02T06:26:29.653Z,35.47
2023-05-02T06:27:31.088Z,36.15
2023-05-02T06:28:29.471Z,35.69
2023-05-02T06:29:29.473Z,35.72
2023-05-02T06:30:29.641Z,35.88
2023-05-02T06:31:30.299Z,36.48
2023-05-02T06:32:29.491Z,35.77
2023-05-02T06:33:29.474Z,35.83
2023-05-02T06:34:29.454Z,35.73
2023-05-02T06:35:29.636Z,35.70
2023-05-02T06:36:29.453Z,36.13
2023-05-02T06:37:29.482Z,35.74
2023-05-02T06:38:29.437Z,35.84
2023-05-02T06:39:29.415Z,35.64
2023-05-02T06:40:29.414Z,35.69
2023-05-02T06:41:29.412Z,37.06
2023-05-02T06:42:29.639Z,36.04
2023-05-02T06:43:29.392Z,35.71
2023-05-02T06:44:29.648Z,36.37
2023-05-02T06:45:29.376Z,36.15
2023-05-02T06:46:29.382Z,36.19
2023-05-02T06:47:29.667Z,36.69
2023-05-02T06:48:29.347Z,36.46
2023-05-02T06:49:29.662Z,36.46
2023-05-02T06:50:29.338Z,36.59
2023-05-02T06:51:29.332Z,36.41
2023-05-02T06:52:29.356Z,36.62
2023-05-02T06:53:32.370Z,36.53
2023-05-02T06:54:29.352Z,36.90
2023-05-02T06:55:29.330Z,36.97
2023-05-02T06:56:29.329Z,36.79
2023-05-02T06:57:29.338Z,36.87
2023-05-02T06:58:29.644Z,36.74
2023-05-02T06:59:29.297Z,36.77
2023-05-02T07:00:29.291Z,36.88
2023-05-02T07:01:29.316Z,36.92
2023-05-02T07:02:29.318Z,36.88
2023-05-02T07:03:29.653Z,36.92
2023-05-02T07:04:29.667Z,37.03
2023-05-02T07:05:29.244Z,37.44
2023-05-02T07:06:29.300Z,37.69
2023-05-02T07:07:29.230Z,37.38
2023-05-02T07:08:29.212Z,37.53
2023-05-02T07:09:29.700Z,37.42
2023-05-02T07:10:29.204Z,37.45
2023-05-02T07:11:29.188Z,37.47
2023-05-02T07:12:29.670Z,37.42
2023-05-02T07:13:29.182Z,37.44
2023-05-02T07:14:29.647Z,37.50
2023-05-02T07:15:29.173Z,37.46
2023-05-02T07:16:29.217Z,37.73
2023-05-02T07:17:29.695Z,37.87
2023-05-02T07:18:29.148Z,37.69
2023-05-02T07:19:29.129Z,37.80
2023-05-02T07:20:29.124Z,37.78
2023-05-02T07:21:29.124Z,37.74
2023-05-02T07:22:29.235Z,37.74
2023-05-02T07:23:30.216Z,37.97
2023-05-02T07:24:29.153Z,37.91
2023-05-02T07:25:29.698Z,37.86
2023-05-02T07:26:31.181Z,38.29
2023-05-02T07:27:29.686Z,38.11
2023-05-02T07:28:29.179Z,38.06
2023-05-02T07:29:29.159Z,38.30
2023-05-02T07:30:29.172Z,38.04
2023-05-02T07:31:29.601Z,38.19
2023-05-02T07:32:29.296Z,38.39
2023-05-02T07:33:29.231Z,38.20
2023-05-02T07:34:29.089Z,38.24
2023-05-02T07:35:29.197Z,38.42
2023-05-02T07:36:29.072Z,38.24
2023-05-02T07:37:29.197Z,36.56
2023-05-02T07:38:29.068Z,36.16
2023-05-02T07:39:29.051Z,35.84
2023-05-02T07:40:28.966Z,35.54
2023-05-02T07:41:29.753Z,35.56
2023-05-02T07:42:29.262Z,35.25
2023-05-02T07:43:29.113Z,35.24
2023-05-02T07:44:29.152Z,35.27
2023-05-02T07:45:29.205Z,34.95
2023-05-02T07:46:28.946Z,34.87
2023-05-02T07:47:28.932Z,35.04
2023-05-02T07:48:29.201Z,34.84
2023-05-02T07:49:28.998Z,34.76
2023-05-02T07:50:29.061Z,34.75
2023-05-02T07:51:29.102Z,34.74
2023-05-02T07:52:29.173Z,34.57
2023-05-02T07:53:29.710Z,34.57
2023-05-02T07:54:29.413Z,34.81
2023-05-02T07:55:29.469Z,34.89
2023-05-02T07:56:29.530Z,34.99
2023-05-02T07:57:29.650Z,34.93
2023-05-02T07:58:29.665Z,35.01
2023-05-02T07:59:30.213Z,34.77
2023-05-02T08:00:29.732Z,34.97
2023-05-02T08:01:29.772Z,34.75
2023-05-02T08:02:30.192Z,34.82
2023-05-02T08:03:30.298Z,35.09
2023-05-02T08:04:30.223Z,34.97
2023-05-02T08:05:30.224Z,34.83
2023-05-02T08:06:30.114Z,35.67
2023-05-02T08:07:30.221Z,34.70
2023-05-02T08:08:30.150Z,34.55
2023-05-02T08:09:30.206Z,34.56
2023-05-02T08:10:30.673Z,34.51
2023-05-02T08:11:30.289Z,34.52
2023-05-02T08:12:30.355Z,34.91
2023-05-02T08:13:30.411Z,34.66
2023-05-02T08:14:30.434Z,34.57
2023-05-02T08:15:30.686Z,34.75
2023-05-02T08:16:30.567Z,34.32
2023-05-02T08:17:30.535Z,34.60
2023-05-02T08:18:30.572Z,34.46
2023-05-02T08:19:30.674Z,34.31
2023-05-02T08:20:30.678Z,34.33
2023-05-02T08:21:30.743Z,34.24
2023-05-02T08:22:30.820Z,34.18
2023-05-02T08:23:30.791Z,34.09
2023-05-02T08:24:31.151Z,34.20
2023-05-02T08:25:31.232Z,34.04
2023-05-02T08:26:31.107Z,34.90
2023-05-02T08:27:31.685Z,34.13
2023-05-02T08:28:31.229Z,34.23
2023-05-02T08:29:31.247Z,34.40
2023-05-02T08:30:31.221Z,34.72
2023-05-02T08:31:31.733Z,34.44
2023-05-02T08:32:31.252Z,34.73
2023-05-02T08:33:31.845Z,35.01
2023-05-02T08:34:31.293Z,34.84
2023-05-02T08:35:31.279Z,34.24
2023-05-02T08:36:31.314Z,34.32
2023-05-02T08:37:31.708Z,34.03
2023-05-02T08:38:31.392Z,34.05
2023-05-02T08:39:31.425Z,33.93
2023-05-02T08:40:41.469Z,34.14
2023-05-02T08:41:31.475Z,34.24
2023-05-02T08:42:31.460Z,34.14
2023-05-02T08:43:31.474Z,34.19
2023-05-02T08:44:31.701Z,34.35
2023-05-02T08:45:31.477Z,34.34
2023-05-02T08:46:31.524Z,34.17
2023-05-02T08:47:31.502Z,34.05
2023-05-02T08:48:31.441Z,34.04
2023-05-02T08:49:31.685Z,34.22
2023-05-02T08:50:31.438Z,34.37
2023-05-02T08:51:32.198Z,34.37
2023-05-02T08:52:31.427Z,34.42
2023-05-02T08:53:31.461Z,34.40
2023-05-02T08:54:31.437Z,34.38
2023-05-02T08:55:31.696Z,34.41
2023-05-02T08:56:31.433Z,34.38
2023-05-02T08:57:31.436Z,34.32
2023-05-02T08:58:31.692Z,34.40
2023-05-02T08:59:31.418Z,35.19
2023-05-02T09:00:31.428Z,35.34
2023-05-02T09:01:31.512Z,35.81
2023-05-02T09:02:31.459Z,35.14
2023-05-02T09:03:31.741Z,35.28
2023-05-02T09:04:31.421Z,35.29
2023-05-02T09:05:31.696Z,35.73
2023-05-02T09:06:31.410Z,35.42
2023-05-02T09:07:31.376Z,35.90
2023-05-02T09:08:31.696Z,36.04
2023-05-02T09:09:31.332Z,35.63
2023-05-02T09:10:31.322Z,35.86
2023-05-02T09:11:31.694Z,35.88
2023-05-02T09:12:31.288Z,35.71
2023-05-02T09:13:31.329Z,35.68
2023-05-02T09:14:31.323Z,35.88
2023-05-02T09:15:31.694Z,35.79
2023-05-02T09:16:31.420Z,35.86
2023-05-02T09:17:31.486Z,35.81
2023-05-02T09:18:31.463Z,35.92
2023-05-02T09:19:31.693Z,36.31
2023-05-02T09:20:31.695Z,36.18
2023-05-02T09:21:31.602Z,36.01
2023-05-02T09:22:31.624Z,36.12
2023-05-02T09:23:31.658Z,36.11
2023-05-02T09:24:32.211Z,36.07
2023-05-02T09:25:32.223Z,36.02
2023-05-02T09:26:32.076Z,36.69
2023-05-02T09:27:31.813Z,36.81
2023-05-02T09:28:32.223Z,36.40
2023-05-02T09:29:31.827Z,36.22
2023-05-02T09:30:32.244Z,36.34
2023-05-02T09:31:54.147Z,36.52
2023-05-02T09:32:32.011Z,36.26
2023-05-02T09:33:31.889Z,35.86
2023-05-02T09:34:31.858Z,35.78
2023-05-02T09:35:32.209Z,35.33
2023-05-02T09:36:32.230Z,35.13
2023-05-02T09:37:31.751Z,35.33
2023-05-02T09:38:31.727Z,35.17
2023-05-02T09:39:32.282Z,35.09
2023-05-02T09:40:31.674Z,35.00
2023-05-02T09:41:31.662Z,35.19
2023-05-02T09:42:31.642Z,35.42
2023-05-02T09:43:31.703Z,35.34
2023-05-02T09:44:32.822Z,35.39
2023-05-02T09:45:31.701Z,35.29
2023-05-02T09:46:31.786Z,35.38
2023-05-02T09:47:31.818Z,35.52
2023-05-02T09:48:31.822Z,35.31
2023-05-02T09:49:32.018Z,35.37
2023-05-02T09:50:32.376Z,35.52
2023-05-02T09:51:31.935Z,35.52
2023-05-02T09:52:31.975Z,35.53
2023-05-02T09:53:32.204Z,35.48
2023-05-02T09:54:32.016Z,35.53
2023-05-02T09:55:32.028Z,35.59
2023-05-02T09:56:32.027Z,35.49
2023-05-02T09:57:32.270Z,35.50
2023-05-02T09:58:32.270Z,35.59
2023-05-02T09:59:32.288Z,35.56
2023-05-02T10:00:32.710Z,35.68
2023-05-02T10:01:32.266Z,35.60
2023-05-02T10:02:32.074Z,35.48
2023-05-02T10:03:32.263Z,35.49
2023-05-02T10:04:32.225Z,35.47
2023-05-02T10:05:32.042Z,35.49
2023-05-02T10:06:32.027Z,35.50
2023-05-02T10:07:32.006Z,35.54
2023-05-02T10:08:32.214Z,35.50
2023-05-02T10:09:32.022Z,35.52
2023-05-02T10:10:32.045Z,35.48
2023-05-02T10:11:31.996Z,35.44
2023-05-02T10:12:31.991Z,35.52
2023-05-02T10:13:32.217Z,35.53
2023-05-02T10:14:32.227Z,35.49
2023-05-02T10:15:32.063Z,35.50
2023-05-02T10:16:32.127Z,35.46
2023-05-02T10:17:33.055Z,35.50
2023-05-02T10:18:32.219Z,35.51
2023-05-02T10:19:32.249Z,35.45
2023-05-02T10:20:32.037Z,35.42
2023-05-02T10:21:32.246Z,35.36
2023-05-02T10:22:32.045Z,35.35
2023-05-02T10:23:32.228Z,35.42
2023-05-02T10:24:32.053Z,35.39
2023-05-02T10:25:32.101Z,35.32
2023-05-02T10:26:32.052Z,35.34
2023-05-02T10:27:32.585Z,35.34
2023-05-02T10:28:32.223Z,35.38
2023-05-02T10:29:32.101Z,35.31
2023-05-02T10:30:32.258Z,35.31
2023-05-02T10:31:32.178Z,35.26
2023-05-02T10:32:32.164Z,35.33
2023-05-02T10:33:32.152Z,35.30
2023-05-02T10:34:32.150Z,35.24
2023-05-02T10:35:32.172Z,35.27
2023-05-02T10:36:32.223Z,35.27
2023-05-02T10:37:32.235Z,35.29
2023-05-02T10:38:32.232Z,35.24
2023-05-02T10:39:32.236Z,35.29
2023-05-02T10:40:33.292Z,35.27
2023-05-02T10:41:32.726Z,35.25
2023-05-02T10:42:32.282Z,35.21
2023-05-02T10:43:32.304Z,35.20
2023-05-02T10:44:32.734Z,35.12
2023-05-02T10:45:32.325Z,35.15
2023-05-02T10:46:32.757Z,35.02
2023-05-02T10:47:32.417Z,35.12
2023-05-02T10:48:32.726Z,35.04
2023-05-02T10:49:32.410Z,35.02
2023-05-02T10:50:33.231Z,35.06
2023-05-02T10:51:32.745Z,35.03
2023-05-02T10:52:32.505Z,34.99
2023-05-02T10:53:32.759Z,34.99
2023-05-02T10:54:32.541Z,34.99
2023-05-02T10:55:32.569Z,35.04
2023-05-02T10:56:32.733Z,34.97
2023-05-02T10:57:32.601Z,35.01
2023-05-02T10:58:32.624Z,34.97
2023-05-02T10:59:32.653Z,35.02
2023-05-02T11:00:32.738Z,35.01
2023-05-02T11:01:33.109Z,35.08
2023-05-02T11:02:33.292Z,34.98
2023-05-02T11:03:32.821Z,34.97
2023-05-02T11:04:32.786Z,35.01
2023-05-02T11:05:32.808Z,34.96
2023-05-02T11:06:33.348Z,34.97
2023-05-02T11:07:32.856Z,34.98
2023-05-02T11:08:32.892Z,34.96
2023-05-02T11:09:33.283Z,34.93
2023-05-02T11:10:33.747Z,34.94
2023-05-02T11:11:33.309Z,34.93
2023-05-02T11:12:33.499Z,34.95
2023-05-02T11:13:33.740Z,34.89
2023-05-02T11:14:33.274Z,34.90
2023-05-02T11:15:33.095Z,34.88
2023-05-02T11:16:33.158Z,34.92
2023-05-02T11:17:33.188Z,34.85
2023-05-02T11:18:33.257Z,34.86
2023-05-02T11:19:33.270Z,34.81
2023-05-02T11:20:33.234Z,34.80
2023-05-02T11:21:33.743Z,34.81
2023-05-02T11:22:33.302Z,34.77
2023-05-02T11:23:33.763Z,34.85
2023-05-02T11:24:33.753Z,34.85
2023-05-02T11:25:33.762Z,34.76
2023-05-02T11:26:33.409Z,34.79
2023-05-02T11:27:33.569Z,34.71
2023-05-02T11:28:33.744Z,34.74
2023-05-02T11:29:33.499Z,34.71
2023-05-02T11:30:33.752Z,34.72
2023-05-02T11:31:33.588Z,34.68
2023-05-02T11:32:33.674Z,34.74
2023-05-02T11:33:33.744Z,34.69
2023-05-02T11:34:33.650Z,34.69
2023-05-02T11:35:33.681Z,34.66
2023-05-02T11:36:34.009Z,34.66
2023-05-02T11:37:33.775Z,34.73
2023-05-02T11:38:34.246Z,34.71
2023-05-02T11:39:33.839Z,34.65
2023-05-02T11:40:33.877Z,34.68
2023-05-02T11:41:33.924Z,34.63
2023-05-02T11:42:33.930Z,34.64
2023-05-02T11:43:34.250Z,34.64
2023-05-02T11:44:34.008Z,34.60
2023-05-02T11:45:34.050Z,34.63
2023-05-02T11:46:34.107Z,34.59
2023-05-02T11:47:34.145Z,34.60
2023-05-02T11:48:34.168Z,34.60
2023-05-02T11:49:34.252Z,34.54
2023-05-02T11:50:34.233Z,34.63
2023-05-02T11:51:34.297Z,34.54
2023-05-02T11:52:34.286Z,34.53
2023-05-02T11:53:34.764Z,34.57
2023-05-02T11:54:34.365Z,34.57
2023-05-02T11:55:34.397Z,34.52
2023-05-02T11:56:34.761Z,34.49
2023-05-02T11:57:34.503Z,34.49
2023-05-02T11:58:34.670Z,34.49
2023-05-02T11:59:34.539Z,34.52
2023-05-02T12:00:34.598Z,34.49
2023-05-02T12:01:34.776Z,34.47
2023-05-02T12:02:34.758Z,34.46
2023-05-02T12:03:34.993Z,34.51
2023-05-02T12:04:34.755Z,34.47
2023-05-02T12:05:34.823Z,34.45
2023-05-02T12:06:35.580Z,34.48
2023-05-02T12:07:35.260Z,34.44
2023-05-02T12:08:34.928Z,34.47
2023-05-02T12:09:34.950Z,34.41
2023-05-02T12:10:35.009Z,34.48
2023-05-02T12:11:35.278Z,34.38
2023-05-02T12:12:35.081Z,34.35
2023-05-02T12:13:35.161Z,34.47
2023-05-02T12:14:35.159Z,34.49
2023-05-02T12:15:35.198Z,34.44
2023-05-02T12:16:35.323Z,34.35
2023-05-02T12:17:35.399Z,34.36
2023-05-02T12:18:36.406Z,34.25
2023-05-02T12:19:35.355Z,34.33
2023-05-02T12:20:35.412Z,34.40
2023-05-02T12:21:35.439Z,34.44
2023-05-02T12:22:35.783Z,34.40
2023-05-02T12:23:37.446Z,34.39
2023-05-02T12:24:35.538Z,34.38
2023-05-02T12:25:35.796Z,34.42
2023-05-02T12:26:35.804Z,34.35
2023-05-02T12:27:35.535Z,34.37
2023-05-02T12:28:35.769Z,34.35
2023-05-02T12:29:35.892Z,34.31
2023-05-02T12:30:36.050Z,34.21
2023-05-02T12:31:36.274Z,34.33
2023-05-02T12:32:35.796Z,34.33
2023-05-02T12:33:35.491Z,34.33
2023-05-02T12:34:35.470Z,34.42
2023-05-02T12:35:35.772Z,34.33
2023-05-02T12:36:35.450Z,34.38
2023-05-02T12:37:35.452Z,34.21
2023-05-02T12:38:35.438Z,34.28
2023-05-02T12:39:35.452Z,34.32
2023-05-02T12:40:35.434Z,34.33
2023-05-02T12:41:35.432Z,34.30
2023-05-02T12:42:35.407Z,34.30
2023-05-02T12:43:36.629Z,34.26
2023-05-02T12:44:35.417Z,34.33
2023-05-02T12:45:35.440Z,34.34
2023-05-02T12:46:35.791Z,34.24
2023-05-02T12:47:35.519Z,34.18
2023-05-02T12:48:35.530Z,34.33
2023-05-02T12:49:35.776Z,34.15
2023-05-02T12:50:35.608Z,34.25
2023-05-02T12:51:35.639Z,34.31
2023-05-02T12:52:35.700Z,34.26